Terminal Aerodrome Forecast
Issued by NWS Cleveland, OH

Home | Current Version | Previous Version | Graphics & Text | Print | Product List | Glossary On
Versions: 1 2 3 4 5 6 7 8 9 10 11 12 13 14 15 16 17 18 19 20 21 22 23 24 25 26 27
015
FTUS41 KCLE 232332
TAFCLE
TAF
KCLE 232332Z 2400/2506 03005KT P6SM BKN050
     FM240100 04005KT P6SM VCSH BKN035
     FM240300 10005KT 4SM -SHRA BR OVC025
     FM240900 15008KT P6SM SCT020
     FM241600 19017G26KT P6SM SCT050
     FM250400 19013KT P6SM -SHRA BKN040=

USA.gov is the U.S. government's official web portal to all federal, state and local government web resources and services.